Home > Products > Valid Products > TAF

000
FTUS44 KBMX 222300
TAFANB
TAF
KANB 222326Z 2300/2324 36003KT P6SM SKC=



000
FTUS44 KBMX 222300
TAFTOI
TAF
KTOI 222326Z 2300/2324 36003KT P6SM SKC=



000
FTUS44 KBMX 222300
TAFBHM
TAF
KBHM 222326Z 2300/2324 01004KT P6SM SKC=



000
FTUS44 KBMX 222300
TAFEET
TAF
KEET 222326Z 2300/2324 35003KT P6SM SKC=



000
FTUS44 KBMX 222300
TAFTCL
TAF
KTCL 222326Z 2300/2324 35004KT P6SM SKC=



000
FTUS44 KBMX 222300
TAFMGM
TAF
KMGM 222326Z 2300/2324 35003KT P6SM SKC=



000
FTUS44 KBMX 221700
TAFTCL
TAF
KTCL 221726Z 2218/2318 02008KT P6SM SKC
     FM230000 00000KT P6SM SKC=



000
FTUS44 KBMX 221700
TAFANB
TAF
KANB 221726Z 2218/2318 36007KT P6SM SKC
     FM230000 00000KT P6SM SKC=



000
FTUS44 KBMX 221700
TAFMGM
TAF
KMGM 221726Z 2218/2318 02008KT P6SM SKC
     FM230000 36003KT P6SM SKC=



000
FTUS44 KBMX 221700
TAFTOI
TAF
KTOI 221726Z 2218/2318 01007KT P6SM SKC
     FM230000 00000KT P6SM SKC=



000
FTUS44 KBMX 221700
TAFBHM
TAF
KBHM 221726Z 2218/2318 36007KT P6SM SKC
     FM230000 VRB02KT P6SM SKC=



000
FTUS44 KBMX 221700
TAFEET
TAF
KEET 221726Z 2218/2318 36005KT P6SM SKC
     FM230000 00000KT P6SM SKC=



000
FTUS44 KBMX 221700
TAFTCL
TAF
KTCL 221726Z 2218/2318 02008KT P6SM SKC
     FM230000 00000KT P6SM SKC=



000
FTUS44 KBMX 221700
TAFMGM
TAF
KMGM 221726Z 2218/2318 02008KT P6SM SKC
     FM230000 36003KT P6SM SKC=



000
FTUS44 KBMX 221700
TAFBHM
TAF
KBHM 221726Z 2218/2318 36007KT P6SM SKC
     FM230000 VRB02KT P6SM SKC=



000
FTUS44 KBMX 221700
TAFTOI
TAF
KTOI 221726Z 2218/2318 01007KT P6SM SKC
     FM230000 00000KT P6SM SKC=



000
FTUS44 KBMX 221700
TAFEET
TAF
KEET 221726Z 2218/2318 36005KT P6SM SKC
     FM230000 00000KT P6SM SKC=



000
FTUS44 KBMX 221700
TAFANB
TAF
KANB 221726Z 2218/2318 36007KT P6SM SKC
     FM230000 00000KT P6SM SKC=



000
FTUS44 KBMX 221100
TAFEET
TAF
KEET 221124Z 2212/2312 01006KT P6SM SKC=



000
FTUS44 KBMX 221100
TAFTCL
TAF
KTCL 221124Z 2212/2312 02005KT P6SM SKC
     FM221500 02008KT P6SM SKC
     FM230000 02003KT P6SM SKC=



000
FTUS44 KBMX 221100
TAFANB
TAF
KANB 221124Z 2212/2312 02006KT P6SM SKC=



000
FTUS44 KBMX 221100
TAFBHM
TAF
KBHM 221124Z 2212/2312 02005KT P6SM SKC
     FM221500 02008KT P6SM SKC
     FM230000 02003KT P6SM SKC=



000
FTUS44 KBMX 221100
TAFMGM
TAF
KMGM 221124Z 2212/2312 01005KT P6SM SKC
     FM221500 02008KT P6SM SKC
     FM230000 01003KT P6SM SKC=



000
FTUS44 KBMX 221100
TAFTOI
TAF
KTOI 221124Z 2212/2312 01005KT P6SM SKC
     FM221500 01008KT P6SM SKC
     FM230000 00000KT P6SM SKC=



000
FTUS44 KBMX 221100 AAA
TAFANB
TAF AMD
KANB 221123Z 2211/2306 02005KT P6SM SKC
      TEMPO 2211/2212 3SM BR=



000
FTUS44 KBMX 220700 AAA
TAFMGM
TAF AMD
KMGM 220738Z 2208/2306 00000KT 4SM BR SKC
      TEMPO 2208/2212 2SM BR
     FM221300 01005KT P6SM SKC=



000
FTUS44 KBMX 220500
TAFEET
TAF
KEET 220523Z 2206/2306 01005KT P6SM SKC=



000
FTUS44 KBMX 220500
TAFTCL
TAF
KTCL 220523Z 2206/2306 02005KT P6SM SKC=



000
FTUS44 KBMX 220500
TAFBHM
TAF
KBHM 220523Z 2206/2306 02005KT P6SM SKC=



000
FTUS44 KBMX 220500
TAFANB
TAF
KANB 220523Z 2206/2306 02005KT P6SM SKC=



000
FTUS44 KBMX 220500
TAFTOI
TAF
KTOI 220523Z 2206/2306 01005KT P6SM SKC=



000
FTUS44 KBMX 220500
TAFMGM
TAF
KMGM 220523Z 2206/2306 01005KT P6SM SKC=



000
FTUS44 KBMX 220500
TAFBHM
TAF
KBHM 220523Z 2206/2306 02005KT P6SM SKC=



000
FTUS44 KBMX 220500
TAFANB
TAF
KANB 220523Z 2206/2306 02005KT P6SM SKC=



000
FTUS44 KBMX 220500
TAFTOI
TAF
KTOI 220523Z 2206/2306 01005KT P6SM SKC=



000
FTUS44 KBMX 220500
TAFEET
TAF
KEET 220523Z 2206/2306 01005KT P6SM SKC=



000
FTUS44 KBMX 220500
TAFMGM
TAF
KMGM 220523Z 2206/2306 01005KT P6SM SKC=



000
FTUS44 KBMX 220500
TAFTCL
TAF
KTCL 220523Z 2206/2306 02005KT P6SM SKC=



000
FTUS44 KBMX 220100 AAA
TAFMGM
TAF AMD
KMGM 220112Z 2201/2224 30004KT P6SM SKC
     FM221400 01005KT P6SM SKC=



000
FTUS44 KBMX 220100 AAA
TAFTOI
TAF AMD
KTOI 220112Z 2201/2224 00000KT P6SM SKC
     FM221400 01005KT P6SM SKC=



000
FTUS44 KBMX 220100 AAA
TAFANB
TAF AMD
KANB 220111Z 2201/2224 00000KT P6SM SKC
     FM221400 02007KT P6SM SKC=



000
FTUS44 KBMX 220100 AAA
TAFTCL
TAF AMD
KTCL 220111Z 2201/2224 36004KT P6SM SKC
     FM221400 02007KT P6SM SKC=



000
FTUS44 KBMX 220100 AAA
TAFEET
TAF AMD
KEET 220110Z 2201/2224 33003KT P6SM SKC
     FM221400 01005KT P6SM SKC=



000
FTUS44 KBMX 220100 AAA
TAFBHM
TAF AMD
KBHM 220109Z 2201/2224 00000KT P6SM SKC
     FM221400 03008KT P6SM SKC=



000
FTUS44 KBMX 211900 AAA
TAFBHM
TAF AMD
KBHM 211930Z 2120/2218 33012KT P6SM SCT060
     FM220200 00000KT P6SM SKC
     FM221400 02007KT P6SM SKC=



000
FTUS44 KBMX 211900 AAA
TAFANB
TAF AMD
KANB 211930Z 2120/2218 33005KT P6SM SCT050
     FM220200 00000KT P6SM SKC
     FM221400 02007KT P6SM SKC=



000
FTUS44 KBMX 211900 AAA
TAFBHM
TAF AMD
KBHM 211930Z 2120/2218 33012KT P6SM SCT060
     FM220200 00000KT P6SM SKC
     FM221400 02007KT P6SM SKC=



000
FTUS44 KBMX 211700
TAFANB
TAF
KANB 211731Z 2118/2218 25005KT P6SM SKC
     FM220300 00000KT P6SM SKC
     FM221400 02007KT P6SM SKC=



000
FTUS42 KBMX 211700
TAFTCL
TAF
KTCL 211731Z 2118/2218 34007KT P6SM SKC
     FM220300 00000KT P6SM SKC
     FM221400 02007KT P6SM SKC=



000
FTUS44 KBMX 211700
TAFEET
TAF
KEET 211731Z 2118/2218 33007KT P6SM SKC
     FM220300 00000KT P6SM SKC
     FM221400 01008KT P6SM SKC=



000
FTUS44 KBMX 211700
TAFMGM
TAF
KMGM 211731Z 2118/2218 33007KT P6SM SKC
     FM220300 00000KT P6SM SKC
     FM221400 01007KT P6SM SKC=



000
FTUS44 KBMX 211700
TAFTOI
TAF
KTOI 211731Z 2118/2218 33007KT P6SM SKC
     FM220300 00000KT P6SM SKC
     FM221400 01008KT P6SM SKC=



000
FTUS44 KBMX 211700
TAFBHM
TAF
KBHM 211731Z 2118/2218 33007KT P6SM SKC
     FM220300 00000KT P6SM SKC
     FM221400 02007KT P6SM SKC=



000
FTUS44 KBMX 211100
TAFTCL
TAF
KTCL 211126Z 2112/2212 34006KT P6SM SKC=



000
FTUS44 KBMX 211100
TAFMGM
TAF
KMGM 211126Z 2112/2212 33006KT P6SM SKC=



000
FTUS44 KBMX 211100
TAFTOI
TAF
KTOI 211126Z 2112/2212 33006KT P6SM SKC=



000
FTUS44 KBMX 211100
TAFBHM
TAF
KBHM 211126Z 2112/2212 33006KT P6SM SKC=



000
FTUS44 KBMX 211100
TAFEET
TAF
KEET 211126Z 2112/2212 33005KT P6SM SKC=



000
FTUS44 KBMX 211100
TAFANB
TAF
KANB 211126Z 2112/2212 32006KT P6SM SKC=



000
FTUS44 KBMX 211100
TAFMGM
TAF
KMGM 211126Z 2112/2212 33006KT P6SM SKC=



000
FTUS44 KBMX 211100
TAFEET
TAF
KEET 211126Z 2112/2212 33005KT P6SM SKC=



000
FTUS44 KBMX 211100
TAFANB
TAF
KANB 211126Z 2112/2212 32006KT P6SM SKC=



000
FTUS44 KBMX 211100
TAFTCL
TAF
KTCL 211126Z 2112/2212 34006KT P6SM SKC=



000
FTUS44 KBMX 211100
TAFBHM
TAF
KBHM 211126Z 2112/2212 33006KT P6SM SKC=



000
FTUS44 KBMX 211100
TAFTOI
TAF
KTOI 211126Z 2112/2212 33006KT P6SM SKC=



000
FTUS44 KBMX 210900 AAB
TAFANB
TAF AMD
KANB 210912Z 2109/2206 00000KT 4SM BR SKC
      TEMPO 2109/2112 1SM BR BKN002
     FM211300 31006KT P6SM SKC=



000
FTUS44 KBMX 210700 AAA
TAFANB
TAF AMD
KANB 210752Z 2108/2206 31006KT P6SM SKC
      TEMPO 2108/2112 1SM BR=



000
FTUS44 KBMX 210500
TAFTOI
TAF
KTOI 210520Z 2106/2206 33006KT P6SM SKC=



000
FTUS44 KBMX 210500
TAFTCL
TAF
KTCL 210520Z 2106/2206 34006KT P6SM SKC=



000
FTUS44 KBMX 210500
TAFBHM
TAF
KBHM 210520Z 2106/2206 33006KT P6SM SKC=



000
FTUS44 KBMX 210500
TAFANB
TAF
KANB 210520Z 2106/2206 31006KT P6SM SKC=



000
FTUS44 KBMX 210500
TAFMGM
TAF
KMGM 210520Z 2106/2206 33006KT P6SM SKC=



000
FTUS44 KBMX 210500
TAFEET
TAF
KEET 210520Z 2106/2206 33005KT P6SM SKC=



000
FTUS44 KBMX 202300
TAFMGM
TAF
KMGM 202339Z 2100/2124 00000KT P6SM SKC=



000
FTUS44 KBMX 202300
TAFANB
TAF
KANB 202339Z 2100/2124 00000KT P6SM FEW120=



000
FTUS44 KBMX 202300
TAFTCL
TAF
KTCL 202339Z 2100/2124 00000KT P6SM FEW120=



000
FTUS44 KBMX 202300
TAFEET
TAF
KEET 202339Z 2100/2124 00000KT P6SM FEW120=



000
FTUS44 KBMX 202300
TAFTOI
TAF
KTOI 202339Z 2100/2124 00000KT P6SM SKC=



000
FTUS44 KBMX 202300
TAFBHM
TAF
KBHM 202339Z 2100/2124 00000KT P6SM FEW120=



000
FTUS44 KBMX 201700 RRA
TAFMGM
TAF
KMGM 201743Z 2018/2118 21003KT P6SM SKC=



000
FTUS44 KBMX 201700 RRA
TAFTOI
TAF
KTOI 201743Z 2018/2118 21003KT P6SM FEW040=



000
FTUS44 KBMX 201700 RRA
TAFTCL
TAF
KTCL 201743Z 2018/2118 VRB02KT P6SM FEW120=



000
FTUS44 KBMX 201700 RRA
TAFANB
TAF
KANB 201743Z 2018/2118 VRB02KT P6SM FEW120=



000
FTUS44 KBMX 201700 RRA
TAFBHM
TAF
KBHM 201743Z 2018/2118 VRB02KT P6SM FEW120=



000
FTUS44 KBMX 201700 RRA
TAFEET
TAF
KEET 201743Z 2018/2118 VRB02KT P6SM FEW120=



000
FTUS44 KBMX 201100
TAFTOI
TAF
KTOI 201120Z 2012/2112 VRB03KT P6SM SKC=



000
FTUS44 KBMX 201100
TAFANB
TAF
KANB 201120Z 2012/2112 VRB03KT P6SM SKC=



000
FTUS44 KBMX 201100
TAFEET
TAF
KEET 201120Z 2012/2112 VRB03KT P6SM SKC=



000
FTUS44 KBMX 201100
TAFMGM
TAF
KMGM 201120Z 2012/2112 VRB03KT P6SM SKC=



000
FTUS44 KBMX 201100
TAFBHM
TAF
KBHM 201120Z 2012/2112 VRB03KT P6SM SKC=



000
FTUS44 KBMX 201100
TAFTCL
TAF
KTCL 201120Z 2012/2112 VRB03KT P6SM SKC=



000
FTUS44 KBMX 200500
TAFMGM
TAF
KMGM 200522Z 2006/2106 00000KT P6SM SKC=



000
FTUS44 KBMX 200500
TAFTCL
TAF
KTCL 200522Z 2006/2106 00000KT P6SM SKC=



000
FTUS44 KBMX 200500
TAFEET
TAF
KEET 200522Z 2006/2106 00000KT P6SM SKC=



000
FTUS44 KBMX 200500
TAFTOI
TAF
KTOI 200522Z 2006/2106 00000KT P6SM SKC=



000
FTUS44 KBMX 200500
TAFBHM
TAF
KBHM 200522Z 2006/2106 00000KT P6SM SKC=



000
FTUS44 KBMX 200500
TAFANB
TAF
KANB 200522Z 2006/2106 00000KT P6SM SKC=



    US Dept of Commerce
    National Oceanic and Atmospheric Administration
    National Weather Service
    1325 East West Highway
    Silver Spring, MD 20910
    Page Author: NWS Internet Services Team
Disclaimer
Information Quality
Credits
Glossary
Privacy Policy
Freedom of Information Act (FOIA)
About Us
Career Opportunities